Terminal Aerodrome Forecast
Issued by NWS Duluth, MN

Current Version | Previous Version | Text Only | Print | Product List | Glossary On
Versions: 1 2 3 4 5 6 7 8 9 10 11 12 13 14 15 16 17 18 19 20 21 22 23 24 25 26 27 28 29 30 31 32 33 34 35
000
FTUS43 KDLH 252204 AAC
TAFDLH
TAF AMD
KDLH 252204Z 2522/2618 25011G19KT P6SM VCSH BKN023 BKN030 OVC045
     FM260700 29015G25KT P6SM -SHRA SCT007 OVC015
     FM261200 30020G30KT P6SM -SHRA SCT015 OVC025=

USA.gov is the U.S. government's official web portal to all federal, state and local government web resources and services.